Jepson Prairie Reserve, California Weather observations

Data are for 10 minute period ending at time listed.
 Day   Time   Solar   Ave.   Ave.  Ave.  Vector  Max.   Baro.   Total    
  of    of     Rad.   Air    Rel.  Wind   Wind   Wind  Press.  Precip.   
Year   Day            Temp.  Hum.  Speed  Dir.   Gust                    
2014   (PST)  Kw/m2    F      %     mph   deg.    mph    mb.     in.     
-------------------------------------------------------------------------
 293    5:10   0.00   60.2    84   10.0   221    12.6   1010.5    0.00 
 293    5:20   0.00   59.0    86    9.2   216    11.0   1010.5    0.00 
 293    5:30   0.00   58.8    88    6.2   206     8.8   1010.5    0.00 
 293    5:40   0.00   59.1    89    2.8   155     4.3   1010.5    0.00 
 293    5:50   0.00   58.8    88    3.0   154     4.7   1010.5    0.00 
 293    6:00   0.00   57.5    89    4.0   171     5.0   1010.5    0.00 
 293    6:10   0.00   56.7    91    4.3   195     6.1   1010.5    0.00 
 293    6:20   0.00   58.2    93    5.3   181     9.0   1010.5    0.00 
 293    6:30   0.01   58.9    91    5.9   175     8.1   1010.5    0.00 
 293    6:40   0.02   58.5    91    4.6   165     7.7   1010.5    0.00 
 293    6:50   0.05   58.3    90    3.7   164     6.2   1010.5    0.00 
 293    7:00   0.07   58.9    89    3.3   149     5.6   1010.5    0.00 
 293    7:10   0.10   59.9    87    3.0   161     5.1   1010.8    0.00 
 293    7:20   0.12   61.2    85    7.0   190    10.8   1010.8    0.00 
 293    7:30   0.15   62.6    80    8.5   195    11.8   1011.2    0.00 
 293    7:40   0.18   63.6    77    8.2   189    10.7   1011.5    0.00 
 293    7:50   0.20   64.7    73    9.1   191    12.5   1011.5    0.00 
 293    8:00   0.18   65.2    72   11.2   190    14.8   1011.5    0.00 
 293    8:10   0.28   66.2    70   13.4   193    16.9   1011.5    0.00 
 293    8:20   0.34   66.7    68   14.9   194    18.0   1011.9    0.00 
 293    8:30   0.37   67.6    66   13.0   189    16.2   1011.9    0.00 
 293    8:40   0.42   68.5    64   11.4   191    15.9   1011.9    0.00 
 293    8:50   0.19   67.9    65   11.7   185    16.7   1011.9    0.00 
 293    9:00   0.28   67.7    66   12.9   194    16.7   1011.9    0.00 
 293    9:10   0.47   68.8    64   14.5   204    21.4   1012.2    0.00 
 293    9:20   0.19   67.7    65   14.7   206    20.3   1012.2    0.00 
 293    9:30   0.07   66.7    68   15.2   210    20.6   1012.2    0.00 
 293    9:40   0.08   66.0    72   16.2   221    22.8   1012.5    0.00 
 293    9:50   0.10   65.4    74   18.8   225    24.0   1012.5    0.00 
 293   10:00   0.14   64.7    76   16.1   216    20.4   1012.5    0.00 
 293   10:10   0.28   65.4    74   14.7   197    18.3   1012.2    0.00 
 293   10:20   0.26   66.6    70   13.6   201    16.8   1012.5    0.00 
 293   10:30   0.43   67.2    70   14.6   207    20.1   1012.5    0.00 
 293   10:40   0.45   68.1    68   14.7   209    19.0   1012.2    0.00 
 293   10:50   0.35   68.9    64   14.4   210    19.7   1012.2    0.00 
 293   11:00   0.27   68.5    63   15.5   210    20.0   1012.2    0.00 
 293   11:10   0.27   68.1    64   14.0   208    19.6   1012.2    0.00 
 293   11:20   0.29   68.2    63   15.7   211    21.5   1012.2    0.00 
 293   11:30   0.32   68.4    63   12.8   211    18.3   1012.2    0.00 
 293   11:40   0.36   69.2    62   17.4   200    22.9   1012.2    0.00 
 293   11:50   0.32   69.1    61   15.8   209    23.4   1012.2    0.00 
 293   12:00   0.45   69.5    59   15.9   226    23.3   1012.2    0.00 
 293   12:10   0.51   70.0    58   16.6   231    22.3   1012.2    0.00 
 293   12:20   0.33   69.9    57   15.2   225    20.9   1012.2    0.00 
 293   12:30   0.33   70.0    55   17.3   217    23.2   1011.9    0.00 
 293   12:40   0.31   69.9    55   14.3   223    20.3   1011.9    0.00 
 293   12:50   0.24   70.2    53   14.4   242    20.8   1011.9    0.00 
 293   13:00   0.23   69.7    53   14.0   243    20.5   1011.9    0.00 
 293   13:10   0.18   69.5    52   12.7   243    17.5   1011.9    0.00 
 293   13:20   0.23   69.7    52   11.9   234    17.5   1011.9    0.00 
 293   13:30   0.27   69.9    52   13.8   223    19.4   1011.9    0.00 
 293   13:40   0.42   70.1    52   12.8   229    18.6   1011.9    0.00 
 293   13:50   0.43   71.1    51   16.3   232    21.3   1011.9    0.00 
 293   14:00   0.28   70.7    51   13.2   224    18.9   1011.5    0.00 
 293   14:10   0.24   70.1    51   16.6   219    23.2   1011.5    0.00 
 293   14:20   0.41   70.5    50   17.2   223    24.8   1011.5    0.00 
 293   14:30   0.37   70.8    47   17.8   223    21.9   1011.5    0.00 
 293   14:40   0.43   71.6    44   17.0   218    23.3   1011.5    0.00 
 293   14:50   0.24   70.3    48   16.9   222    22.1   1011.5    0.00 
 293   15:00   0.29   70.8    48   15.8   229    21.5   1011.5    0.00 
 293   15:10   0.41   71.1    48   17.5   217    27.2   1011.5    0.00 
 293   15:20   0.33   71.3    45   20.9   221    26.4   1011.5    0.00 
 293   15:30   0.16   69.9    48   17.9   222    22.9   1011.5    0.00 
 293   15:40   0.17   69.5    48   19.2   228    25.0   1011.2    0.00 
 293   15:50   0.24   70.7    47   19.1   229    26.0   1011.5    0.00 
 293   16:00   0.20   70.0    51   19.0   218    23.7   1011.5    0.00 
 293   16:10   0.17   69.5    52   20.3   216    26.5   1011.2    0.00 
 293   16:20   0.14   69.2    48   21.6   231    28.1   1011.5    0.00 
 293   16:30   0.11   68.8    48   21.2   236    27.6   1011.5    0.00 
 293   16:40   0.08   68.1    49   22.0   233    28.7   1011.5    0.00 
 293   16:50   0.06   67.4    50   21.2   230    27.4   1011.9    0.00 
 293   17:00   0.03   66.5    53   18.6   228    23.5   1011.9    0.00 
 293   17:10   0.02   65.7    54   17.6   225    21.5   1012.2    0.00 
 293   17:20   0.01   64.9    56   17.4   224    24.0   1012.2    0.00 
 293   17:30   0.00   64.2    58   14.0   226    19.0   1012.5    0.00 
 293   17:40   0.00   63.6    58   12.6   227    16.7   1012.5    0.00 
 293   17:50   0.00   63.3    60   13.6   229    18.9   1012.5    0.00 
 293   18:00   0.00   63.2    62   14.1   228    18.2   1012.9    0.00 
 293   18:10   0.00   62.7    64   13.4   221    18.3   1012.9    0.00 
 293   18:20   0.00   62.4    65   14.5   224    20.5   1012.9    0.00 
 293   18:30   0.00   61.7    67   12.9   222    16.7   1013.2    0.00 
 293   18:40   0.00   61.3    68   11.5   221    14.5   1013.2    0.00 
 293   18:50   0.00   60.6    69   10.2   217    13.9   1013.2    0.00 
 293   19:00   0.00   60.1    70    9.4   228    11.7   1013.5    0.00 
 293   19:10   0.00   59.6    72    9.7   233    12.1   1013.5    0.00 
 293   19:20   0.00   59.1    74   10.8   229    15.3   1013.5    0.00 
 293   19:30   0.00   59.1    74   11.8   225    13.8   1013.5    0.00 
 293   19:40   0.00   59.4    74   13.4   214    16.1   1013.5    0.00 
 293   19:50   0.00   59.2    75   12.2   212    14.5   1013.5    0.00 
 293   20:00   0.00   58.7    76   10.5   212    12.6   1013.5    0.00 
 293   20:10   0.00   57.8    78    8.1   217    10.0   1013.9    0.00 
 293   20:20   0.00   56.4    80    8.1   216     9.1   1013.9    0.00 
 293   20:30   0.00   55.0    82    8.6   215     9.7   1013.9    0.00 
 293   20:40   0.00   54.0    84    9.2   214     9.6   1013.9    0.00 
 293   20:50   0.00   53.3    86    7.3   217     9.4   1013.9    0.00 
 293   21:00   0.00   53.2    86    2.6   235     5.6   1014.2    0.00 
 293   21:10   0.00   53.6    87    2.5   212     4.7   1014.2    0.00 
 293   21:20   0.00   53.7    86    7.7   204    12.0   1014.2    0.00 
 293   21:30   0.00   53.2    88   13.0   214    16.8   1014.2    0.00 
 293   21:40   0.00   54.7    86   13.1   225    15.1   1014.2    0.00 
 293   21:50   0.00   54.5    86   12.1   225    14.7   1014.6    0.00 
 293   22:00   0.00   53.4    87    8.2   235    10.0   1014.9    0.00 
 293   22:10   0.00   52.5    89    6.0   243     7.2   1014.9    0.00 
 293   22:20   0.00   52.8    89    6.0   258     7.7   1015.2    0.00 
 293   22:30   0.00   52.3    88    7.6   240     8.4   1015.2    0.00 
 293   22:40   0.00   51.0    90   10.1   235    12.8   1014.9    0.00 
 293   22:50   0.00   52.8    92   13.3   232    14.9   1014.9    0.00 
 293   23:00   0.00   54.1    90   10.1   235    13.9   1014.9    0.00 
 293   23:10   0.00   53.8    89    5.3   240     8.0   1015.2    0.00 
 293   23:20   0.00   53.4    90    6.9   233    10.2   1015.2    0.00 
 293   23:30   0.00   52.6    91   10.8   225    11.8   1015.2    0.00 
 293   23:40   0.00   52.7    92    8.8   228    10.2   1015.2    0.00 
 293   23:50   0.00   51.7    92    6.5   246     8.3   1015.2    0.00 
 294    0:00   0.00   51.4    93    7.1   247     8.3   1015.2    0.00 
 294    0:10   0.00   51.4    93    7.0   257     8.7   1015.6    0.00 
 294    0:20   0.00   52.1    93    3.5   277     4.8   1015.6    0.00 
 294    0:30   0.00   52.5    93    3.1   265     4.3   1015.6    0.00 
 294    0:40   0.00   51.1    91    6.3   237     8.9   1015.2    0.00 
 294    0:50   0.00   49.1    93    8.5   213    10.4   1015.2    0.00 
 294    1:00   0.00   48.7    94    6.3   155     7.7   1015.2    0.00 
 294    1:10   0.00   49.2    95    6.4   162     8.4   1015.6    0.00 
 294    1:20   0.00   50.4    95    6.6   190     8.6   1015.6    0.00 
 294    1:30   0.00   50.6    93    5.6   167     6.8   1015.6    0.00 
 294    1:40   0.00   50.5    93    5.7   187     8.5   1015.9    0.00 
 294    1:50   0.00   48.6    92   10.0   211    11.2   1015.6    0.00 
 294    2:00   0.00   49.0    94   10.4   198    11.5   1015.6    0.00 
 294    2:10   0.00   48.9    93    8.7   197    11.2   1015.6    0.00 
 294    2:20   0.00   48.4    93    6.8   182     8.3   1015.6    0.00 
 294    2:30   0.00   48.0    93    8.0   186     9.6   1015.6    0.00 
 294    2:40   0.00   48.6    94    5.2   187     7.3   1015.6    0.00 
 294    2:50   0.00   48.8    93    7.0   197     9.3   1015.2    0.00 
 294    3:00   0.00   48.3    93    8.3   196     9.5   1015.2    0.00 
 294    3:10   0.00   48.3    93    8.0   209     9.6   1015.6    0.00 
 294    3:20   0.00   48.1    94    7.8   224     9.3   1015.6    0.00 
 294    3:30   0.00   47.6    94    8.9   219    11.0   1015.6    0.00 
 294    3:40   0.00   48.2    95    8.3   213     9.7   1015.6    0.00 
 294    3:50   0.00   48.9    95    9.8   219    10.8   1015.6    0.00 
 294    4:00   0.00   48.7    95    8.9   213    10.4   1015.2    0.00 
 294    4:10   0.00   48.7    95    8.2   204     9.6   1015.2    0.00 
 294    4:20   0.00   48.7    94    9.7   205    10.4   1015.2    0.00 
 294    4:30   0.00   48.2    94    9.8   214    11.4   1015.2    0.00 
 294    4:40   0.00   48.6    94    9.7   222    11.6   1015.6    0.00 
 294    4:50   0.00   47.7    93    9.0   221     9.6   1015.6    0.00 
 294    5:00   0.00   46.8    94    7.6   229     8.6   1015.6    0.00 

Return to Jepson Prairie Reserve graphs page.


Western Regional Climate Center,wrcc@dri.edu